Junction City, WI (54443)

10:24 AM CDT on July 24, 2016 (GMT -0500)
Blenker, WI | | Change Station

Elev 1191 ft 44.63 °N, 89.91 °W | Updated 27 seconds ago

Overcast
Overcast
75.7 °F
Feels Like 75 °F
N
2.9
Wind Variable Wind from WNW
Gusts 4.9 mph

Today
High -- | Low -- °F
--% Chance of Precip.
Yesterday
High -- | Low -- °F
Precip. -- in
Pressure 29.82 in
Visibility 2.0 miles
Clouds Overcast 200 ft
Heat Index 75 °F
Dew Point 74 °F
Humidity 96%
Rainfall 0.06 in
Snow Depth Not available.
5:37 AM 8:33 PM
Waning Gibbous, 75% visible
METAR KSTE 241515Z AUTO 21007KT 2SM BR OVC002 23/23 A2982 RMK AO2 T02310231
Pressure 29.82 in
Visibility 2.0 miles
Clouds Overcast 200 ft
Heat Index 75 °F
Dew Point 74 °F
Humidity 96%
Rainfall 0.06 in
Snow Depth Not available.
5:37 AM 8:33 PM
Waning Gibbous, 75% visible
METAR KSTE 241515Z AUTO 21007KT 2SM BR OVC002 23/23 A2982 RMK AO2 T02310231

10-Day Weather Forecast

Almanac

Astronomy

Jul. 24, 2016 Rise Set
Actual Time
Civil Twilight
Nautical Twilight
Astronomical Twilight
Moon
Length of Visible Light
Length of Day
Tomorrow will be .
, % of the Moon is Illuminated

Today's Extremes

State Highs State Lows

Community

WunderPhotos

Upload Photos

1,927,086 photos uploaded!

WunderBlog® & News

Nearby

Air Quality

  Air Quality AQ Index Pollutant
Not available.

Snow Depth

Station Depth Elevation

Earthquake Activity

City Distance Mag. Time & Date
Minimum magnitude displayed is 2.5.

Coastal Water Temperatures

Place Temperature

Stations

Nearby Weather Stations

Station Location Temp. Windchill Dew Point Humidity Wind Precip. Elev Updated Type
                   

Watches & Warnings

There are currently no watches in effect.